Aérodrome :
LOGIN :

S'inscrire | Disclaimer

   EN    FR    IT 

 










Légende :    VFR   VFR Marginal   IFR   IFR Intensif   IFR Très Intensif
Visi : 
Plafond : 
>= 8 km
>= 3000ft
5 à 8 km
1000 à 3000 ft
1500m à 5 km
500 à 1000 ft
800 à 1500m
200 à 500 ft
< 800m
< 200 ft
Symboles :   Orages  Brouillard  Fortes neiges  Fortes précipitations  Vent > 20 kt
SIGMETs :   Divers  Orages  Givrage  Turbulence  Onde Orograph.  Cendres Volcan.







- Altitude de l'aérodrome : 55 ft


LIRU - Urbe

DERNIER METAR :
  • 281113Z 11006KT 4000 TSRA SCT030CB 28/20 Q1008

METARs EXPIRÉS :
  • 281050Z 06007KT 8000 SCT030 SCT045 28/21 Q1008 RESHRA
  • 280950Z 15004KT 100V180 7000 FEW030CB BKN045 26/21 Q1007 RETSRA
  • 280917Z 14005KT 8000 TS SCT030CB SCT045 29/19 Q1007

TAF TAF LIRU
Valide du 28 à 12h jusqu'au 28 à 21h UTC


281100Z 2812/2821 17015KT 9999 SCT030
TEMPO 2812/2816 TSRA
Pas de NOTAMs connus pour ce terrain.



MET'MAP, la Météo Aéronautique d'un coup d'oeil ! - Copyright ORBIFLY Décembre 2007 - Disclaimer

ORBIFLY MET'MAP TEAM :

Programmation & Développement : Alexandra Zaïnal
Conception & Développement : Baudouin d'Aumeries
Co-Programmation & Développement : Marc-Olivier Méhu
Soutien technique & logistique : Manuel Goepfert

Contact : metmap@orbifly.com




SOURCES & CREDITS :

   NOAA